Weather forecast for Bulen (Булен)

Russia, 519 m
N52.847, E104.807


Sounding

Red line — air temperature ˚C.
Blue line — thermal bubble temperature ˚C.
Green line — dew point temperature ˚C.
Wind speed is in meters per second.

Table forecast

GFS 0.25˚ model

temp. wind gust humid. clouds prec. press. hpbl
Thu28 00:00 4 216.0 sw 1 1 64 100 0.0 1018 10
03:00 3 324.0 nw 1 1 65 99 0.0 1019 10
06:00 2 41.0 ne 2 2 72 84 0.0 1021 21
09:00 0 336.0 nnw 3 4 85 87 0.0 1024 57
12:00 2 12.0 nne 4 6 72 100 0.0 1025 556
15:00 1 346.0 nnw 3 5 92 100 0.8 1026 396
18:00 2 350.0 n 3 5 70 100 0.1 1028 687
21:00 -1 312.0 nw 2 4 83 76 0.1 1031 68
 
Fri29 00:00 -3 318.0 nw 1 1 75 5 0.0 1033 10
03:00 -4 320.0 nw 1 1 65 34 0.0 1034 10
06:00 -5 53.0 ne 1 1 60 32 0.0 1034 10
09:00 -5 74.0 ene 1 1 56 43 0.0 1035 10
12:00 -0 83.0 e 3 4 37 0 0.0 1034 367
15:00 3 96.0 e 3 4 33 0 0.0 1032 746
18:00 1 72.0 ene 3 4 44 0 0.0 1031 54
21:00 -3 94.0 e 3 2 55 0 0.0 1032 25
 
Sat30 00:00 -4 73.0 ene 3 2 65 1 0.0 1032 28
03:00 -4 67.0 ene 3 2 67 13 0.0 1032 30
06:00 -4 65.0 ene 3 2 71 55 0.0 1032 29
09:00 -4 69.0 ene 2 2 79 93 0.0 1032 22
12:00 2 98.0 e 2 2 58 5 0.0 1031 262
15:00 6 147.0 sse 2 3 44 5 0.0 1028 632
18:00 3 99.0 e 2 2 59 5 0.0 1027 15
21:00 -1 92.0 e 2 2 70 75 0.0 1028 12
 
Sun31 00:00 -2 70.0 ene 2 2 74 60 0.0 1028 19
03:00 -2 72.0 ene 2 2 82 51 0.0 1027 18
06:00 -3 74.0 ene 2 2 86 32 0.0 1026 15
09:00 -3 64.0 ene 2 2 88 99 0.0 1026 16
12:00 1 68.0 ene 1 1 70 100 0.0 1025 199
15:00 4 296.0 wnw 2 2 59 100 0.0 1023 462
18:00 1 122.0 ese 0 0 71 100 0.0 1022 10
21:00 -1 108.0 ese 1 1 81 100 0.0 1022 10
 
Mon01 00:00 -2 95.0 e 2 2 85 8 0.0 1020 10
03:00 -2 81.0 e 2 2 86 12 0.0 1017 13
06:00 -3 81.0 e 2 2 89 5 0.0 1014 19
09:00 -3 81.0 e 2 2 88 95 0.0 1012 18
12:00 3 106.0 ese 2 3 59 100 0.0 1009 235
15:00 5 299.0 wnw 3 3 54 100 0.0 1009 509
18:00 2 305.0 nw 2 3 68 100 0.0 1012 41
21:00 0 292.0 wnw 5 10 86 100 0.1 1015 330
 

0.019 s